createdAt,value
2018-02-10T00:01:13.059Z,118.20
2018-02-10T00:03:40.783Z,133.82
2018-02-10T00:08:42.918Z,127.20
2018-02-10T00:11:10.428Z,135.73
2018-02-10T00:13:37.924Z,123.87
2018-02-10T00:16:05.428Z,130.05
2018-02-10T00:18:32.944Z,133.25
2018-02-10T00:21:00.449Z,122.03
2018-02-10T00:23:28.010Z,129.30
2018-02-10T00:25:55.497Z,194.25
2018-02-10T00:28:23.040Z,160.75
2018-02-10T00:30:50.523Z,135.55
2018-02-10T00:33:18.068Z,120.20
2018-02-10T00:35:45.592Z,123.03
2018-02-10T00:38:13.103Z,108.80
2018-02-10T00:40:40.628Z,108.70
2018-02-10T00:43:08.169Z,121.72
2018-02-10T00:45:36.424Z,127.97
2018-02-10T00:48:04.750Z,134.80
2018-02-10T00:50:32.263Z,188.98
2018-02-10T00:53:00.571Z,120.22
2018-02-10T00:55:28.837Z,129.50
2018-02-10T00:57:57.127Z,127.80
2018-02-10T01:00:25.402Z,126.72
2018-02-10T01:02:53.674Z,105.55
2018-02-10T01:05:21.213Z,141.85
2018-02-10T01:07:48.730Z,119.75
2018-02-10T01:10:16.225Z,115.80
2018-02-10T01:12:43.775Z,142.32
2018-02-10T01:15:11.267Z,130.10
2018-02-10T01:17:38.878Z,120.28
2018-02-10T01:20:07.139Z,122.85
2018-02-10T01:22:35.420Z,112.22
2018-02-10T01:25:02.921Z,127.35
2018-02-10T01:27:30.643Z,135.35
2018-02-10T01:29:58.166Z,138.55
2018-02-10T01:32:25.679Z,124.00
2018-02-10T01:34:53.965Z,124.70
2018-02-10T01:37:22.337Z,142.73
2018-02-10T01:39:49.873Z,120.32
2018-02-10T01:42:17.395Z,131.15
2018-02-10T01:44:44.908Z,132.98
2018-02-10T01:47:12.403Z,121.20
2018-02-10T01:49:40.684Z,121.28
2018-02-10T01:52:08.997Z,131.23
2018-02-10T01:54:36.551Z,123.05
2018-02-10T01:57:04.048Z,114.45
2018-02-10T01:59:31.558Z,118.50
2018-02-10T02:01:59.833Z,142.13
2018-02-10T02:04:28.130Z,126.07
2018-02-10T02:06:57.287Z,136.02
2018-02-10T02:09:24.948Z,154.48
2018-02-10T02:11:52.436Z,125.38
2018-02-10T02:14:20.543Z,141.10
2018-02-10T02:16:48.046Z,122.68
2018-02-10T02:19:15.674Z,133.35
2018-02-10T02:21:43.219Z,134.98
2018-02-10T02:24:12.418Z,130.23
2018-02-10T02:26:40.692Z,134.50
2018-02-10T02:29:08.204Z,135.55
2018-02-10T02:31:35.712Z,135.00
2018-02-10T02:34:03.236Z,148.32
2018-02-10T02:36:30.728Z,139.98
2018-02-10T02:38:58.224Z,122.35
2018-02-10T02:41:26.516Z,142.00
2018-02-10T02:43:54.013Z,119.15
2018-02-10T02:46:21.532Z,130.40
2018-02-10T02:48:49.143Z,121.25
2018-02-10T02:51:16.677Z,127.65
2018-02-10T02:53:45.664Z,126.28
2018-02-10T02:56:13.181Z,138.10
2018-02-10T02:58:40.710Z,144.55
2018-02-10T03:01:08.234Z,136.77
2018-02-10T03:03:36.513Z,127.75
2018-02-10T03:06:04.823Z,145.77
2018-02-10T03:08:32.477Z,127.30
2018-02-10T03:11:00.056Z,140.32
2018-02-10T03:13:27.569Z,154.52
2018-02-10T03:15:55.210Z,141.57
2018-02-10T03:18:22.715Z,133.23
2018-02-10T03:20:51.002Z,135.48
2018-02-10T03:23:19.259Z,145.80
2018-02-10T03:25:46.800Z,142.40
2018-02-10T03:28:14.312Z,119.43
2018-02-10T03:30:42.593Z,131.90
2018-02-10T03:33:10.851Z,138.93
2018-02-10T03:35:38.373Z,148.32
2018-02-10T03:38:05.887Z,135.70
2018-02-10T03:40:33.392Z,139.95
2018-02-10T03:43:00.965Z,149.20
2018-02-10T03:45:28.460Z,141.32
2018-02-10T03:47:56.004Z,131.10
2018-02-10T03:50:23.511Z,124.75
2018-02-10T03:52:51.046Z,129.50
2018-02-10T03:55:18.537Z,135.07
2018-02-10T03:57:46.847Z,139.88
2018-02-10T04:00:14.353Z,134.73
2018-02-10T04:02:41.955Z,124.50
2018-02-10T04:05:10.267Z,160.48
2018-02-10T04:07:37.788Z,126.95
2018-02-10T04:10:06.063Z,136.95
2018-02-10T04:12:33.576Z,132.60
2018-02-10T04:15:01.097Z,158.20
2018-02-10T04:17:28.605Z,147.75
2018-02-10T04:19:56.137Z,134.30
2018-02-10T04:22:24.387Z,126.45
2018-02-10T04:24:53.135Z,139.37
2018-02-10T04:27:20.637Z,137.52
2018-02-10T04:29:48.172Z,137.65
2018-02-10T04:32:15.692Z,142.05
2018-02-10T04:34:44.010Z,134.25
2018-02-10T04:37:11.504Z,131.82
2018-02-10T04:39:39.023Z,137.10
2018-02-10T04:42:06.525Z,128.02
2018-02-10T04:44:34.100Z,132.45
2018-02-10T04:47:01.592Z,153.12
2018-02-10T04:49:29.887Z,134.45
2018-02-10T04:51:58.155Z,135.65
2018-02-10T04:54:26.428Z,129.32
2018-02-10T04:56:55.026Z,115.07
2018-02-10T04:59:24.462Z,142.60
2018-02-10T05:01:51.949Z,148.00
2018-02-10T05:04:19.510Z,147.02
2018-02-10T05:06:47.042Z,124.15
2018-02-10T05:09:14.566Z,134.70
2018-02-10T05:11:42.072Z,133.55
2018-02-10T05:14:09.634Z,136.73
2018-02-10T05:16:37.139Z,145.70
2018-02-10T05:19:04.641Z,121.00
2018-02-10T05:21:32.914Z,134.27
2018-02-10T05:24:01.828Z,124.50
2018-02-10T05:26:30.127Z,123.20
2018-02-10T05:28:57.665Z,137.07
2018-02-10T05:31:26.115Z,142.02
2018-02-10T05:33:54.451Z,132.70
2018-02-10T05:36:22.021Z,129.82
2018-02-10T05:38:49.596Z,127.38
2018-02-10T05:41:17.117Z,126.85
2018-02-10T05:43:45.396Z,134.02
2018-02-10T05:46:12.889Z,138.93
2018-02-10T05:48:41.283Z,151.98
2018-02-10T05:51:08.788Z,129.70
2018-02-10T05:53:36.287Z,138.32
2018-02-10T05:56:04.588Z,130.37
2018-02-10T05:58:32.118Z,125.93
2018-02-10T06:01:00.385Z,130.35
2018-02-10T06:03:28.224Z,130.48
2018-02-10T06:05:55.723Z,124.65
2018-02-10T06:08:23.241Z,116.35
2018-02-10T06:10:50.735Z,143.10
2018-02-10T06:13:18.263Z,127.62
2018-02-10T06:15:45.795Z,119.93
2018-02-10T06:18:14.101Z,135.25
2018-02-10T06:20:41.633Z,125.47
2018-02-10T06:23:09.897Z,125.55
2018-02-10T06:25:37.426Z,130.25
2018-02-10T06:28:05.286Z,114.88
2018-02-10T06:30:32.789Z,130.07
2018-02-10T06:33:01.057Z,131.80
2018-02-10T06:35:28.545Z,126.82
2018-02-10T06:37:56.073Z,114.07
2018-02-10T06:40:23.623Z,122.30
2018-02-10T06:42:51.464Z,113.20
2018-02-10T06:45:19.738Z,120.82
2018-02-10T06:47:48.021Z,133.32
2018-02-10T06:50:16.333Z,125.55
2018-02-10T06:52:43.861Z,127.03
2018-02-10T06:55:12.116Z,110.45
2018-02-10T06:57:39.673Z,120.97
2018-02-10T07:00:07.177Z,130.80
2018-02-10T07:02:35.910Z,116.82
2018-02-10T07:05:03.434Z,120.35
2018-02-10T07:07:31.726Z,132.95
2018-02-10T07:09:59.258Z,127.65
2018-02-10T07:12:26.749Z,122.75
2018-02-10T07:14:54.256Z,142.73
2018-02-10T07:17:21.764Z,146.55
2018-02-10T07:19:50.147Z,137.57
2018-02-10T07:22:18.433Z,127.95
2018-02-10T07:24:46.013Z,124.72
2018-02-10T07:27:13.512Z,116.18
2018-02-10T07:29:41.027Z,128.73
2018-02-10T07:32:08.575Z,113.32
2018-02-10T07:34:36.922Z,127.22
2018-02-10T07:37:04.462Z,123.38
2018-02-10T07:39:32.091Z,113.93
2018-02-10T07:42:01.170Z,121.20
2018-02-10T07:44:29.471Z,115.37
2018-02-10T07:46:57.014Z,118.43
2018-02-10T07:49:24.523Z,125.75
2018-02-10T07:51:52.034Z,121.78
2018-02-10T07:54:19.560Z,114.05
2018-02-10T07:56:47.061Z,128.05
2018-02-10T07:59:14.626Z,129.80
2018-02-10T08:01:42.152Z,119.68
2018-02-10T08:04:09.686Z,126.00
2018-02-10T08:06:37.962Z,118.68
2018-02-10T08:09:06.242Z,117.60
2018-02-10T08:11:33.748Z,119.87
2018-02-10T08:14:01.270Z,108.72
2018-02-10T08:16:28.789Z,123.38
2018-02-10T08:18:56.372Z,111.00
2018-02-10T08:21:23.886Z,113.45
2018-02-10T08:23:51.429Z,110.88
2018-02-10T08:26:18.946Z,110.18
2018-02-10T08:28:46.657Z,119.47
2018-02-10T08:31:14.914Z,109.57
2018-02-10T08:33:42.446Z,114.15
2018-02-10T08:36:09.960Z,120.50
2018-02-10T08:38:38.260Z,117.55
2018-02-10T08:41:05.741Z,120.50
2018-02-10T08:43:33.287Z,105.75
2018-02-10T08:46:01.246Z,99.40
2018-02-10T08:48:28.793Z,116.07
2018-02-10T08:50:57.060Z,114.47
2018-02-10T08:53:24.560Z,124.95
2018-02-10T08:55:52.160Z,105.47
2018-02-10T08:58:19.660Z,128.05
2018-02-10T09:00:47.157Z,203.62
2018-02-10T09:03:14.663Z,127.22
2018-02-10T09:05:42.236Z,112.68
2018-02-10T09:08:09.734Z,190.35
2018-02-10T09:10:38.330Z,137.23
2018-02-10T09:13:05.848Z,107.78
2018-02-10T09:15:33.706Z,102.00
2018-02-10T09:18:01.240Z,126.68
2018-02-10T09:20:28.784Z,116.22
2018-02-10T09:22:56.320Z,108.60
2018-02-10T09:25:23.837Z,124.65
2018-02-10T09:27:51.968Z,118.75
2018-02-10T09:30:19.496Z,108.55
2018-02-10T09:32:47.143Z,114.00
2018-02-10T09:35:14.671Z,108.75
2018-02-10T09:37:43.075Z,108.55
2018-02-10T09:40:10.767Z,109.05
2018-02-10T09:42:38.835Z,98.82
2018-02-10T09:45:06.345Z,114.60
2018-02-10T09:47:33.993Z,104.43
2018-02-10T09:50:01.500Z,109.55
2018-02-10T09:52:30.093Z,116.72
2018-02-10T09:54:57.675Z,117.28
2018-02-10T09:57:25.244Z,119.78
2018-02-10T09:59:52.767Z,118.90
2018-02-10T10:02:21.128Z,120.00
2018-02-10T10:04:48.720Z,106.57
2018-02-10T10:07:16.300Z,108.72
2018-02-10T10:09:44.184Z,121.05
2018-02-10T10:12:11.726Z,110.10
2018-02-10T10:14:40.051Z,104.20
2018-02-10T10:17:08.802Z,108.93
2018-02-10T10:19:36.391Z,98.18
2018-02-10T10:22:04.027Z,113.45
2018-02-10T10:24:31.625Z,108.32
2018-02-10T10:26:59.165Z,109.15
2018-02-10T10:29:26.810Z,125.60
2018-02-10T10:31:55.138Z,130.82
2018-02-10T10:34:22.720Z,123.40
2018-02-10T10:36:50.222Z,132.57
2018-02-10T10:39:19.116Z,120.30
2018-02-10T10:41:47.422Z,114.43
2018-02-10T10:44:14.954Z,114.15
2018-02-10T10:46:42.458Z,97.47
2018-02-10T10:49:09.978Z,104.07
2018-02-10T10:51:39.086Z,115.12
2018-02-10T10:54:07.609Z,108.07
2018-02-10T10:56:35.137Z,110.77
2018-02-10T10:59:03.054Z,114.27
2018-02-10T11:01:30.578Z,125.33
2018-02-10T11:03:58.977Z,94.00
2018-02-10T11:06:27.265Z,107.00
2018-02-10T11:08:54.799Z,107.70
2018-02-10T11:11:23.103Z,100.63
2018-02-10T11:13:51.494Z,96.93
2018-02-10T11:16:19.896Z,86.07
2018-02-10T11:18:48.163Z,87.28
2018-02-10T11:21:15.698Z,102.45
2018-02-10T11:23:43.977Z,101.00
2018-02-10T11:26:12.274Z,93.50
2018-02-10T11:28:40.615Z,86.17
2018-02-10T11:31:08.139Z,94.17
2018-02-10T11:33:35.676Z,96.03
2018-02-10T11:36:03.332Z,100.70
2018-02-10T11:38:30.874Z,100.50
2018-02-10T11:40:59.218Z,79.35
2018-02-10T11:43:26.725Z,83.43
2018-02-10T11:45:54.226Z,94.93
2018-02-10T11:48:23.897Z,98.97
2018-02-10T11:50:51.432Z,92.00
2018-02-10T11:53:18.928Z,88.20
2018-02-10T11:55:46.487Z,88.10
2018-02-10T11:58:14.095Z,74.57
2018-02-10T12:00:41.792Z,83.97
2018-02-10T12:03:09.881Z,78.43
2018-02-10T12:05:37.401Z,94.47
2018-02-10T12:08:05.666Z,77.07
2018-02-10T12:10:33.957Z,70.07
2018-02-10T12:13:02.220Z,60.70
2018-02-10T12:15:29.747Z,77.33
2018-02-10T12:17:57.293Z,89.73
2018-02-10T12:20:24.834Z,80.68
2018-02-10T12:22:53.110Z,79.50
2018-02-10T12:25:21.465Z,69.23
2018-02-10T12:27:50.008Z,67.60
2018-02-10T12:30:17.508Z,73.67
2018-02-10T12:32:45.022Z,90.17
2018-02-10T12:35:13.067Z,71.63
2018-02-10T12:37:41.343Z,71.97
2018-02-10T12:40:09.038Z,75.13
2018-02-10T12:42:37.190Z,87.37
2018-02-10T12:45:04.726Z,71.30
2018-02-10T12:47:40.285Z,75.13
2018-02-10T12:50:08.007Z,86.37
2018-02-10T12:52:36.532Z,92.83
2018-02-10T12:55:04.110Z,79.73
2018-02-10T12:57:31.689Z,76.87
2018-02-10T12:59:59.964Z,80.00
2018-02-10T13:02:27.487Z,89.00
2018-02-10T13:04:55.113Z,81.07
2018-02-10T13:07:23.386Z,79.53
2018-02-10T13:09:51.738Z,64.30
2018-02-10T13:12:19.603Z,86.60
2018-02-10T13:14:47.087Z,83.03
2018-02-10T13:17:14.678Z,81.23
2018-02-10T13:19:42.956Z,75.93
2018-02-10T13:22:11.227Z,87.30
2018-02-10T13:24:38.797Z,67.77
2018-02-10T13:27:07.050Z,86.27
2018-02-10T13:29:34.572Z,77.47
2018-02-10T13:32:02.152Z,89.53
2018-02-10T13:34:30.242Z,72.55
2018-02-10T13:36:57.775Z,72.07
2018-02-10T13:39:25.889Z,83.40
2018-02-10T13:41:54.990Z,73.70
2018-02-10T13:44:22.510Z,86.70
2018-02-10T13:46:50.024Z,80.70
2018-02-10T13:49:17.520Z,79.53
2018-02-10T13:51:45.944Z,87.57
2018-02-10T13:54:13.594Z,81.87
2018-02-10T13:56:41.097Z,82.67
2018-02-10T13:59:08.641Z,80.83
2018-02-10T14:01:36.619Z,92.20
2018-02-10T14:04:04.129Z,75.90
2018-02-10T14:06:32.429Z,83.17
2018-02-10T14:09:00.033Z,84.67
2018-02-10T14:11:27.525Z,92.67
2018-02-10T14:13:55.053Z,93.93
2018-02-10T14:16:22.552Z,92.37
2018-02-10T14:18:50.938Z,85.87
2018-02-10T14:21:18.515Z,92.03
2018-02-10T14:23:47.886Z,85.40
2018-02-10T14:26:16.210Z,108.13
2018-02-10T14:28:43.758Z,93.27
2018-02-10T14:31:12.265Z,90.73
2018-02-10T14:33:39.853Z,90.93
2018-02-10T14:36:07.452Z,83.20
2018-02-10T14:38:34.958Z,101.07
2018-02-10T14:41:02.519Z,82.93
2018-02-10T14:43:30.099Z,100.40
2018-02-10T14:45:57.640Z,89.73
2018-02-10T14:48:25.943Z,98.93
2018-02-10T14:50:53.524Z,91.03
2018-02-10T14:53:21.067Z,95.62
2018-02-10T14:55:49.127Z,83.93
2018-02-10T14:58:16.666Z,87.73
2018-02-10T15:00:44.301Z,102.03
2018-02-10T15:03:11.862Z,76.60
2018-02-10T15:05:39.408Z,87.73
2018-02-10T15:08:07.077Z,91.97
2018-02-10T15:10:34.605Z,112.40
2018-02-10T15:13:02.878Z,102.90
2018-02-10T15:15:31.180Z,101.00
2018-02-10T15:17:58.875Z,89.10
2018-02-10T15:20:26.438Z,109.35
2018-02-10T15:22:54.022Z,79.73
2018-02-10T15:25:21.667Z,91.67
2018-02-10T15:27:49.918Z,79.57
2018-02-10T15:30:29.280Z,87.28
2018-02-10T15:33:08.670Z,82.57
2018-02-10T15:35:36.201Z,100.62
2018-02-10T15:38:03.709Z,88.40
2018-02-10T15:40:31.247Z,97.93
2018-02-10T15:42:58.776Z,85.93
2018-02-10T15:45:26.332Z,74.22
2018-02-10T15:47:53.857Z,98.72
2018-02-10T15:50:23.175Z,87.07
2018-02-10T15:52:51.292Z,97.30
2018-02-10T15:55:18.827Z,95.10
2018-02-10T15:57:46.975Z,85.15
2018-02-10T16:00:15.817Z,88.97
2018-02-10T16:02:43.424Z,95.05
2018-02-10T16:05:11.827Z,86.82
2018-02-10T16:07:41.103Z,113.78
2018-02-10T16:10:08.623Z,91.57
2018-02-10T16:12:36.746Z,93.18
2018-02-10T16:15:05.125Z,95.25
2018-02-10T16:17:33.440Z,92.90
2018-02-10T16:20:02.026Z,86.97
2018-02-10T16:22:30.436Z,85.55
2018-02-10T16:24:58.853Z,86.10
2018-02-10T16:27:27.597Z,86.78
2018-02-10T16:29:55.147Z,97.03
2018-02-10T16:32:23.497Z,82.22
2018-02-10T16:34:51.853Z,93.15
2018-02-10T16:37:20.335Z,80.12
2018-02-10T16:39:48.720Z,87.18
2018-02-10T16:42:16.310Z,90.68
2018-02-10T16:44:43.961Z,88.53
2018-02-10T16:47:12.418Z,100.80
2018-02-10T16:49:40.009Z,83.53
2018-02-10T16:52:07.558Z,96.28
2018-02-10T16:54:36.328Z,100.53
2018-02-10T16:57:03.842Z,98.97
2018-02-10T16:59:31.524Z,78.10
2018-02-10T17:01:59.902Z,75.37
2018-02-10T17:04:28.941Z,87.40
2018-02-10T17:06:56.494Z,93.78
2018-02-10T17:09:24.889Z,88.90
2018-02-10T17:11:52.397Z,83.62
2018-02-10T17:14:19.950Z,69.35
2018-02-10T17:16:48.533Z,78.40
2018-02-10T17:19:16.054Z,91.68
2018-02-10T17:21:44.344Z,74.30
2018-02-10T17:24:12.674Z,83.03
2018-02-10T17:26:40.180Z,93.03
2018-02-10T17:29:08.488Z,72.85
2018-02-10T17:31:36.015Z,76.03
2018-02-10T17:34:05.387Z,73.43
2018-02-10T17:36:33.020Z,82.57
2018-02-10T17:39:00.527Z,71.85
2018-02-10T17:41:31.865Z,75.90
2018-02-10T17:44:00.642Z,93.37
2018-02-10T17:46:30.455Z,82.57
2018-02-10T17:49:01.292Z,80.32
2018-02-10T17:51:29.224Z,68.40
2018-02-10T17:54:08.287Z,63.30
2018-02-10T17:59:30.162Z,63.20
2018-02-10T18:02:05.810Z,67.95
2018-02-10T18:04:34.358Z,79.95
2018-02-10T18:07:03.354Z,76.05
2018-02-10T18:09:32.941Z,82.62
2018-02-10T18:12:03.127Z,82.40
2018-02-10T18:14:32.918Z,85.53
2018-02-10T18:17:03.672Z,77.12
2018-02-10T18:19:34.596Z,76.62
2018-02-10T18:22:02.118Z,81.82
2018-02-10T18:24:29.662Z,62.88
2018-02-10T18:26:57.174Z,73.37
2018-02-10T18:29:24.675Z,75.82
2018-02-10T18:31:52.305Z,70.43
2018-02-10T18:34:19.846Z,68.72
2018-02-10T18:36:49.378Z,67.28
2018-02-10T18:39:17.021Z,74.53
2018-02-10T18:41:47.375Z,57.20
2018-02-10T18:44:15.066Z,74.93
2018-02-10T18:46:42.915Z,58.97
2018-02-10T18:49:10.533Z,75.40
2018-02-10T18:51:38.502Z,65.97
2018-02-10T18:54:09.275Z,58.15
2018-02-10T18:56:37.251Z,67.12
2018-02-10T18:59:05.035Z,66.15
2018-02-10T19:01:32.662Z,62.92
2018-02-10T19:04:01.051Z,71.55
2018-02-10T19:06:29.553Z,65.28
2018-02-10T19:08:57.978Z,72.47
2018-02-10T19:11:26.993Z,75.35
2018-02-10T19:13:56.745Z,65.72
2018-02-10T19:16:24.764Z,76.18
2018-02-10T19:18:52.404Z,70.93
2018-02-10T19:21:19.932Z,65.15
2018-02-10T19:23:48.246Z,85.20
2018-02-10T19:26:16.187Z,84.07
2018-02-10T19:28:43.702Z,70.37
2018-02-10T19:31:11.203Z,74.32
2018-02-10T19:33:39.483Z,71.72
2018-02-10T19:36:07.777Z,73.43
2018-02-10T19:38:36.073Z,69.95
2018-02-10T19:41:04.487Z,66.90
2018-02-10T19:43:32.026Z,65.82
2018-02-10T19:45:59.539Z,74.75
2018-02-10T19:48:27.653Z,72.82
2018-02-10T19:50:55.963Z,65.78
2018-02-10T19:53:23.515Z,61.15
2018-02-10T19:55:51.039Z,79.50
2018-02-10T19:58:18.559Z,89.22
2018-02-10T20:00:46.125Z,68.82
2018-02-10T20:03:13.636Z,62.22
2018-02-10T20:05:41.966Z,90.35
2018-02-10T20:08:09.478Z,62.22
2018-02-10T20:10:37.767Z,69.45
2018-02-10T20:13:06.155Z,64.72
2018-02-10T20:15:34.458Z,77.62
2018-02-10T20:18:02.067Z,63.20
2018-02-10T20:20:29.574Z,73.03
2018-02-10T20:22:57.846Z,76.72
2018-02-10T20:25:27.206Z,58.67
2018-02-10T20:27:55.215Z,69.37
2018-02-10T20:30:22.735Z,67.32
2018-02-10T20:32:50.242Z,70.25
2018-02-10T20:35:17.780Z,85.12
2018-02-10T20:37:46.153Z,62.58
2018-02-10T20:40:13.698Z,91.43
2018-02-10T20:42:41.679Z,76.43
2018-02-10T20:45:09.309Z,65.90
2018-02-10T20:47:36.851Z,85.15
2018-02-10T20:50:04.373Z,66.70
2018-02-10T20:52:31.912Z,63.45
2018-02-10T20:54:59.547Z,63.03
2018-02-10T20:57:28.064Z,71.82
2018-02-10T20:59:55.653Z,74.20
2018-02-10T21:02:23.267Z,69.35
2018-02-10T21:04:50.874Z,80.82
2018-02-10T21:07:18.432Z,60.67
2018-02-10T21:09:45.925Z,69.57
2018-02-10T21:12:13.598Z,72.70
2018-02-10T21:14:41.151Z,75.82
2018-02-10T21:17:08.794Z,74.18
2018-02-10T21:19:37.167Z,74.00
2018-02-10T21:22:04.698Z,66.45
2018-02-10T21:24:32.318Z,64.97
2018-02-10T21:27:00.573Z,67.95
2018-02-10T21:29:28.929Z,78.30
2018-02-10T21:31:58.116Z,73.62
2018-02-10T21:34:25.645Z,79.12
2018-02-10T21:36:53.180Z,72.45
2018-02-10T21:39:21.466Z,89.85
2018-02-10T21:41:49.170Z,79.50
2018-02-10T21:44:16.817Z,78.35
2018-02-10T21:46:45.132Z,67.95
2018-02-10T21:49:12.632Z,81.95
2018-02-10T21:51:40.912Z,79.62
2018-02-10T21:54:09.324Z,79.15
2018-02-10T21:56:36.885Z,74.37
2018-02-10T21:59:06.420Z,87.10
2018-02-10T22:01:34.428Z,83.60
2018-02-10T22:04:01.940Z,86.12
2018-02-10T22:06:29.461Z,81.10
2018-02-10T22:08:57.023Z,87.97
2018-02-10T22:11:24.969Z,73.15
2018-02-10T22:13:52.792Z,67.97
2018-02-10T22:16:20.309Z,83.55
2018-02-10T22:18:47.818Z,92.30
2018-02-10T22:21:15.323Z,80.05
2018-02-10T22:23:42.980Z,75.82
2018-02-10T22:26:10.527Z,69.32
2018-02-10T22:28:38.063Z,81.35
2018-02-10T22:31:06.364Z,75.37
2018-02-10T22:33:33.859Z,79.05
2018-02-10T22:36:01.382Z,64.32
2018-02-10T22:38:29.649Z,68.78
2018-02-10T22:40:57.941Z,67.15
2018-02-10T22:43:26.225Z,75.47
2018-02-10T22:45:54.524Z,70.57
2018-02-10T22:48:22.242Z,78.53
2018-02-10T22:50:49.789Z,75.57
2018-02-10T22:53:17.401Z,75.12
2018-02-10T22:55:45.136Z,73.72
2018-02-10T22:58:12.633Z,78.28
2018-02-10T23:00:42.109Z,76.03
2018-02-10T23:03:10.565Z,78.28
2018-02-10T23:05:38.228Z,74.28
2018-02-10T23:08:06.259Z,69.45
2018-02-10T23:10:36.321Z,78.82
2018-02-10T23:13:03.858Z,79.78
2018-02-10T23:15:32.179Z,84.05
2018-02-10T23:17:59.741Z,73.72
2018-02-10T23:20:27.244Z,76.40
2018-02-10T23:22:55.528Z,103.30
2018-02-10T23:25:24.004Z,92.28
2018-02-10T23:27:52.336Z,84.65
2018-02-10T23:30:19.878Z,93.53
2018-02-10T23:32:48.154Z,101.70
2018-02-10T23:35:16.443Z,92.35
2018-02-10T23:37:44.730Z,97.72
2018-02-10T23:40:12.306Z,97.82
2018-02-10T23:42:39.853Z,105.25
2018-02-10T23:45:08.116Z,90.35
2018-02-10T23:47:36.406Z,82.90
2018-02-10T23:50:04.705Z,98.78
2018-02-10T23:52:32.271Z,85.05
2018-02-10T23:54:59.783Z,92.37
2018-02-10T23:57:27.290Z,91.28
2018-02-10T23:59:55.079Z,83.57
